createdAt,value
2022-11-04T00:00:34.545Z,12.2
2022-11-04T00:01:38.263Z,12.2
2022-11-04T00:02:41.617Z,12.2
2022-11-04T00:03:45.621Z,12.2
2022-11-04T00:04:48.747Z,12.1
2022-11-04T00:05:51.509Z,12.1
2022-11-04T00:06:54.975Z,12.1
2022-11-04T00:07:58.690Z,12.1
2022-11-04T00:09:01.473Z,12.1
2022-11-04T00:10:04.758Z,12.1
2022-11-04T00:11:07.848Z,12.1
2022-11-04T00:12:10.116Z,12.1
2022-11-04T00:13:12.650Z,12.1
2022-11-04T00:14:16.309Z,12.1
2022-11-04T00:15:18.853Z,12.1
2022-11-04T00:16:22.205Z,12.2
2022-11-04T00:17:25.119Z,12.2
2022-11-04T00:18:27.923Z,12.2
2022-11-04T00:19:31.742Z,12.2
2022-11-04T00:20:34.857Z,12.2
2022-11-04T00:21:38.369Z,12.2
2022-11-04T00:22:41.551Z,12.2
2022-11-04T00:23:44.365Z,12.2
2022-11-04T00:24:47.171Z,12.2
2022-11-04T00:25:49.896Z,12.2
2022-11-04T00:26:53.172Z,12.2
2022-11-04T00:27:55.927Z,12.2
2022-11-04T00:28:59.008Z,12.2
2022-11-04T00:30:01.349Z,12.2
2022-11-04T00:31:04.222Z,12.2
2022-11-04T00:32:07.384Z,12.2
2022-11-04T00:33:10.191Z,12.2
2022-11-04T00:34:13.333Z,12.2
2022-11-04T00:35:16.776Z,12.2
2022-11-04T00:36:19.811Z,12.2
2022-11-04T00:37:23.046Z,12.2
2022-11-04T00:38:27.053Z,12.2
2022-11-04T00:39:29.786Z,12.2
2022-11-04T00:40:32.877Z,12.2
2022-11-04T00:41:35.950Z,12.2
2022-11-04T00:42:39.768Z,12.2
2022-11-04T00:43:42.777Z,12.2
2022-11-04T00:44:45.502Z,12.1
2022-11-04T00:45:48.493Z,12.2
2022-11-04T00:46:51.010Z,12.2
2022-11-04T00:47:54.297Z,12.2
2022-11-04T00:48:57.018Z,12.2
2022-11-04T00:49:59.539Z,12.2
2022-11-04T00:51:03.237Z,12.2
2022-11-04T00:52:06.548Z,12.1
2022-11-04T00:53:10.564Z,12.2
2022-11-04T00:54:14.588Z,12.2
2022-11-04T00:55:17.667Z,12.2
2022-11-04T00:56:20.108Z,12.2
2022-11-04T00:57:22.720Z,12.2
2022-11-04T00:58:26.518Z,12.2
2022-11-04T00:59:28.997Z,12.2
2022-11-04T01:00:31.801Z,12.2
2022-11-04T01:01:35.028Z,12.2
2022-11-04T01:02:39.014Z,12.2
2022-11-04T01:03:42.136Z,12.2
2022-11-04T01:04:45.050Z,12.2
2022-11-04T01:05:48.763Z,12.2
2022-11-04T01:06:51.206Z,12.2
2022-11-04T01:07:53.848Z,12.2
2022-11-04T01:08:56.340Z,12.2
2022-11-04T01:09:59.746Z,12.2
2022-11-04T01:11:03.380Z,12.2
2022-11-04T01:12:06.466Z,12.2
2022-11-04T01:13:11.064Z,12.2
2022-11-04T01:14:15.166Z,12.3
2022-11-04T01:15:18.272Z,12.2
2022-11-04T01:16:21.795Z,12.2
2022-11-04T01:17:25.104Z,12.2
2022-11-04T01:18:28.465Z,12.2
2022-11-04T01:19:30.772Z,12.2
2022-11-04T01:20:33.027Z,12.2
2022-11-04T01:21:35.631Z,12.2
2022-11-04T01:22:39.063Z,12.2
2022-11-04T01:23:42.169Z,12.2
2022-11-04T01:24:45.292Z,12.2
2022-11-04T01:25:48.382Z,12.2
2022-11-04T01:26:51.270Z,12.2
2022-11-04T01:27:54.644Z,12.2
2022-11-04T01:28:57.737Z,12.2
2022-11-04T01:30:00.913Z,12.2
2022-11-04T01:31:04.074Z,12.2
2022-11-04T01:32:07.227Z,12.2
2022-11-04T01:33:10.023Z,12.2
2022-11-04T01:34:12.563Z,12.2
2022-11-04T01:35:15.996Z,12.2
2022-11-04T01:36:19.061Z,12.2
2022-11-04T01:37:21.395Z,12.2
2022-11-04T01:38:23.910Z,12.2
2022-11-04T01:39:26.960Z,12.2
2022-11-04T01:40:30.070Z,12.2
2022-11-04T01:41:33.526Z,12.2
2022-11-04T01:42:36.883Z,12.3
2022-11-04T01:43:40.095Z,12.2
2022-11-04T01:44:42.869Z,12.2
2022-11-04T01:45:46.059Z,12.2
2022-11-04T01:46:49.437Z,12.2
2022-11-04T01:47:52.495Z,12.2
2022-11-04T01:48:55.657Z,12.3
2022-11-04T01:49:58.102Z,12.3
2022-11-04T01:51:00.799Z,12.2
2022-11-04T01:52:03.870Z,12.3
2022-11-04T01:53:08.363Z,12.2
2022-11-04T01:54:12.673Z,12.2
2022-11-04T01:55:15.905Z,12.2
2022-11-04T01:56:19.366Z,12.2
2022-11-04T01:57:23.091Z,12.2
2022-11-04T01:58:25.922Z,12.2
2022-11-04T01:59:28.436Z,12.2
2022-11-04T02:00:31.527Z,12.2
2022-11-04T02:01:36.151Z,12.2
2022-11-04T02:02:39.797Z,12.1
2022-11-04T02:03:43.581Z,12.1
2022-11-04T02:04:46.660Z,12.1
2022-11-04T02:05:49.934Z,12.1
2022-11-04T02:06:52.452Z,12.1
2022-11-04T02:07:54.618Z,12.1
2022-11-04T02:08:57.860Z,12.1
2022-11-04T02:10:00.631Z,12.1
2022-11-04T02:11:03.577Z,12.1
2022-11-04T02:12:06.349Z,12.1
2022-11-04T02:13:11.306Z,12.1
2022-11-04T02:14:14.935Z,12.1
2022-11-04T02:15:17.673Z,12
2022-11-04T02:16:20.295Z,12
2022-11-04T02:17:23.464Z,12
2022-11-04T02:18:26.293Z,12
2022-11-04T02:19:29.741Z,12
2022-11-04T02:20:33.125Z,12
2022-11-04T02:21:36.277Z,12
2022-11-04T02:22:39.331Z,11.9
2022-11-04T02:23:42.757Z,11.9
2022-11-04T02:24:45.811Z,11.9
2022-11-04T02:25:48.990Z,11.9
2022-11-04T02:26:52.083Z,11.9
2022-11-04T02:27:55.639Z,12
2022-11-04T02:28:58.850Z,11.9
2022-11-04T02:30:01.567Z,11.9
2022-11-04T02:31:04.098Z,11.9
2022-11-04T02:32:06.888Z,11.9
2022-11-04T02:33:11.297Z,11.9
2022-11-04T02:34:14.968Z,11.9
2022-11-04T02:35:18.303Z,11.9
2022-11-04T02:36:21.372Z,11.9
2022-11-04T02:37:23.884Z,11.9
2022-11-04T02:38:26.687Z,11.9
2022-11-04T02:39:29.686Z,11.9
2022-11-04T02:40:32.838Z,11.9
2022-11-04T02:41:35.644Z,11.9
2022-11-04T02:42:38.754Z,11.9
2022-11-04T02:43:41.683Z,11.9
2022-11-04T02:44:45.153Z,11.9
2022-11-04T02:45:48.155Z,11.9
2022-11-04T02:46:50.733Z,11.9
2022-11-04T02:47:53.660Z,11.9
2022-11-04T02:48:56.832Z,11.9
2022-11-04T02:49:59.915Z,11.9
2022-11-04T02:51:03.292Z,11.9
2022-11-04T02:52:06.384Z,11.9
2022-11-04T02:53:11.478Z,11.9
2022-11-04T02:54:14.667Z,11.9
2022-11-04T02:55:18.119Z,11.9
2022-11-04T02:56:21.087Z,11.9
2022-11-04T02:57:23.871Z,11.9
2022-11-04T02:58:26.433Z,11.9
2022-11-04T02:59:29.881Z,11.9
2022-11-04T03:00:33.277Z,11.9
2022-11-04T03:01:36.849Z,11.9
2022-11-04T03:02:40.731Z,11.9
2022-11-04T03:03:44.381Z,11.9
2022-11-04T03:04:47.263Z,11.9
2022-11-04T03:05:50.935Z,11.9
2022-11-04T03:06:54.004Z,11.9
2022-11-04T03:07:57.358Z,11.9
2022-11-04T03:09:00.795Z,11.9
2022-11-04T03:10:03.870Z,11.9
2022-11-04T03:11:07.491Z,11.9
2022-11-04T03:12:10.633Z,11.9
2022-11-04T03:13:13.359Z,11.9
2022-11-04T03:14:16.908Z,11.9
2022-11-04T03:15:20.105Z,11.9
2022-11-04T03:16:23.214Z,11.9
2022-11-04T03:17:25.539Z,11.9
2022-11-04T03:18:28.060Z,11.9
2022-11-04T03:19:31.598Z,11.9
2022-11-04T03:20:34.774Z,11.9
2022-11-04T03:21:38.131Z,11.9
2022-11-04T03:22:41.218Z,11.9
2022-11-04T03:23:44.560Z,11.9
2022-11-04T03:24:48.307Z,11.9
2022-11-04T03:25:51.412Z,11.9
2022-11-04T03:26:54.599Z,11.9
2022-11-04T03:27:58.024Z,11.9
2022-11-04T03:29:01.035Z,11.9
2022-11-04T03:30:04.541Z,11.9
2022-11-04T03:31:07.837Z,11.9
2022-11-04T03:32:11.047Z,11.9
2022-11-04T03:33:13.495Z,11.9
2022-11-04T03:34:16.847Z,11.9
2022-11-04T03:35:19.641Z,11.9
2022-11-04T03:36:22.724Z,11.9
2022-11-04T03:37:25.810Z,11.9
2022-11-04T03:38:28.358Z,11.9
2022-11-04T03:39:31.139Z,11.9
2022-11-04T03:40:34.104Z,11.8
2022-11-04T03:41:37.253Z,11.9
2022-11-04T03:42:39.971Z,11.9
2022-11-04T03:43:43.026Z,11.9
2022-11-04T03:44:45.549Z,11.9
2022-11-04T03:45:48.371Z,11.9
2022-11-04T03:46:51.597Z,11.9
2022-11-04T03:47:54.772Z,11.9
2022-11-04T03:48:57.774Z,11.9
2022-11-04T03:50:00.850Z,11.9
2022-11-04T03:51:03.735Z,11.9
2022-11-04T03:52:07.210Z,12
2022-11-04T03:53:12.287Z,12
2022-11-04T03:54:17.601Z,12
2022-11-04T03:55:21.681Z,12
2022-11-04T03:56:24.859Z,12
2022-11-04T03:57:27.928Z,12
2022-11-04T03:58:30.453Z,12
2022-11-04T03:59:33.164Z,12
2022-11-04T04:00:36.177Z,12
2022-11-04T04:01:39.585Z,12
2022-11-04T04:02:43.632Z,12
2022-11-04T04:03:47.336Z,12
2022-11-04T04:04:49.589Z,12
2022-11-04T04:05:52.945Z,12
2022-11-04T04:06:55.266Z,12
2022-11-04T04:07:58.630Z,12
2022-11-04T04:09:02.089Z,12
2022-11-04T04:10:04.808Z,12
2022-11-04T04:11:07.605Z,12
2022-11-04T04:12:10.395Z,12
2022-11-04T04:13:14.524Z,12
2022-11-04T04:14:18.173Z,12
2022-11-04T04:15:21.048Z,12
2022-11-04T04:16:27.681Z,12
2022-11-04T04:17:31.058Z,11.9
2022-11-04T04:18:33.915Z,11.9
2022-11-04T04:19:37.283Z,11.9
2022-11-04T04:20:39.875Z,11.9
2022-11-04T04:21:42.590Z,11.9
2022-11-04T04:22:45.382Z,11.9
2022-11-04T04:23:48.535Z,11.9
2022-11-04T04:24:51.545Z,11.9
2022-11-04T04:25:54.786Z,11.9
2022-11-04T04:26:58.229Z,11.9
2022-11-04T04:28:01.607Z,11.9
2022-11-04T04:29:04.721Z,11.9
2022-11-04T04:30:08.026Z,11.9
2022-11-04T04:31:10.756Z,11.9
2022-11-04T04:32:14.032Z,11.9
2022-11-04T04:33:17.149Z,11.9
2022-11-04T04:34:20.002Z,11.9
2022-11-04T04:35:22.816Z,11.8
2022-11-04T04:36:25.346Z,11.9
2022-11-04T04:37:27.872Z,11.9
2022-11-04T04:38:30.373Z,11.9
2022-11-04T04:39:32.893Z,11.9
2022-11-04T04:40:36.340Z,11.9
2022-11-04T04:41:39.144Z,11.9
2022-11-04T04:42:41.751Z,11.9
2022-11-04T04:43:44.543Z,11.9
2022-11-04T04:44:47.696Z,11.9
2022-11-04T04:45:50.491Z,11.9
2022-11-04T04:46:54.176Z,11.9
2022-11-04T04:47:57.277Z,11.9
2022-11-04T04:49:00.609Z,11.9
2022-11-04T04:50:03.444Z,11.8
2022-11-04T04:51:06.890Z,11.8
2022-11-04T04:52:09.970Z,11.8
2022-11-04T04:53:13.287Z,11.8
2022-11-04T04:54:16.656Z,11.8
2022-11-04T04:55:19.828Z,11.8
2022-11-04T04:56:22.996Z,11.8
2022-11-04T04:57:25.802Z,11.8
2022-11-04T04:58:28.702Z,11.8
2022-11-04T04:59:31.328Z,11.8
2022-11-04T05:00:34.745Z,11.8
2022-11-04T05:01:38.089Z,11.8
2022-11-04T05:02:41.979Z,11.8
2022-11-04T05:03:46.402Z,11.8
2022-11-04T05:04:49.433Z,11.8
2022-11-04T05:05:58.781Z,11.8
2022-11-04T05:07:02.049Z,11.8
2022-11-04T05:08:06.151Z,11.8
2022-11-04T05:09:10.195Z,11.8
2022-11-04T05:10:13.925Z,11.8
2022-11-04T05:11:18.252Z,11.8
2022-11-04T05:12:29.453Z,11.8
2022-11-04T05:13:31.957Z,11.8
2022-11-04T05:14:35.736Z,11.8
2022-11-04T05:15:39.440Z,11.8
2022-11-04T05:16:42.624Z,11.8
2022-11-04T05:17:45.792Z,11.8
2022-11-04T05:18:48.496Z,11.8
2022-11-04T05:19:51.026Z,11.8
2022-11-04T05:20:54.073Z,11.8
2022-11-04T05:21:57.305Z,11.8
2022-11-04T05:23:00.213Z,11.8
2022-11-04T05:24:03.881Z,11.8
2022-11-04T05:25:07.240Z,11.8
2022-11-04T05:26:09.405Z,11.8
2022-11-04T05:27:12.943Z,11.8
2022-11-04T05:28:15.960Z,11.8
2022-11-04T05:29:18.754Z,11.8
2022-11-04T05:30:22.133Z,11.8
2022-11-04T05:31:24.792Z,11.8
2022-11-04T05:32:28.447Z,11.8
2022-11-04T05:33:31.900Z,11.8
2022-11-04T05:34:34.889Z,11.8
2022-11-04T05:35:38.077Z,11.8
2022-11-04T05:36:40.991Z,11.8
2022-11-04T05:37:43.811Z,11.8
2022-11-04T05:38:47.076Z,11.8
2022-11-04T05:39:49.779Z,11.8
2022-11-04T05:40:52.571Z,11.8
2022-11-04T05:41:55.749Z,11.8
2022-11-04T05:42:59.114Z,11.8
2022-11-04T05:44:02.300Z,11.8
2022-11-04T05:45:05.097Z,11.8
2022-11-04T05:46:07.260Z,11.9
2022-11-04T05:47:09.976Z,11.8
2022-11-04T05:48:12.239Z,11.8
2022-11-04T05:49:15.388Z,11.8
2022-11-04T05:50:18.539Z,11.8
2022-11-04T05:51:21.743Z,11.8
2022-11-04T05:52:25.142Z,11.8
2022-11-04T05:54:31.149Z,11.8
2022-11-04T05:55:34.602Z,11.8
2022-11-04T05:56:37.302Z,11.8
2022-11-04T05:57:39.932Z,11.8
2022-11-04T05:58:43.584Z,11.8
2022-11-04T05:59:46.941Z,11.8
2022-11-04T06:00:50.032Z,11.8
2022-11-04T06:01:53.542Z,11.8
2022-11-04T06:02:57.612Z,11.8
2022-11-04T06:04:01.336Z,11.8
2022-11-04T06:05:04.242Z,11.8
2022-11-04T06:06:07.407Z,11.9
2022-11-04T06:07:10.421Z,11.9
2022-11-04T06:08:13.464Z,11.9
2022-11-04T06:09:16.482Z,11.9
2022-11-04T06:10:19.960Z,11.9
2022-11-04T06:11:22.739Z,11.9
2022-11-04T06:12:25.816Z,11.9
2022-11-04T06:13:28.878Z,11.9
2022-11-04T06:14:32.255Z,11.9
2022-11-04T06:15:34.867Z,11.9
2022-11-04T06:16:37.664Z,11.9
2022-11-04T06:17:40.648Z,11.9
2022-11-04T06:18:43.434Z,11.9
2022-11-04T06:19:46.868Z,11.9
2022-11-04T06:20:50.311Z,11.9
2022-11-04T06:21:53.124Z,11.9
2022-11-04T06:22:55.961Z,11.9
2022-11-04T06:23:58.602Z,11.9
2022-11-04T06:25:01.512Z,11.9
2022-11-04T06:26:04.888Z,11.9
2022-11-04T06:27:08.054Z,11.9
2022-11-04T06:28:12.076Z,11.9
2022-11-04T06:29:15.209Z,11.9
2022-11-04T06:30:18.594Z,11.9
2022-11-04T06:31:22.030Z,11.9
2022-11-04T06:32:25.765Z,11.9
2022-11-04T06:33:37.409Z,11.9
2022-11-04T06:34:40.538Z,11.9
2022-11-04T06:35:42.777Z,11.9
2022-11-04T06:36:46.239Z,11.9
2022-11-04T06:37:49.319Z,11.9
2022-11-04T06:38:52.762Z,11.9
2022-11-04T06:39:55.948Z,11.9
2022-11-04T06:40:59.305Z,12
2022-11-04T06:42:03.709Z,12
2022-11-04T06:43:07.603Z,12
2022-11-04T06:44:11.286Z,12
2022-11-04T06:45:13.605Z,12
2022-11-04T06:46:16.976Z,12
2022-11-04T06:47:25.750Z,12
2022-11-04T06:48:28.650Z,12
2022-11-04T06:49:31.989Z,12
2022-11-04T06:50:35.067Z,12
2022-11-04T06:51:38.862Z,12
2022-11-04T06:52:43.296Z,12
2022-11-04T06:53:46.003Z,12
2022-11-04T06:54:49.172Z,12.1
2022-11-04T06:55:52.945Z,12.1
2022-11-04T06:56:55.558Z,12.1
2022-11-04T06:57:59.289Z,12.1
2022-11-04T06:59:02.746Z,12.1
2022-11-04T07:00:05.525Z,12.1
2022-11-04T07:01:22.537Z,12.1
2022-11-04T07:02:27.459Z,12.1
2022-11-04T07:03:30.837Z,12.1
2022-11-04T07:04:34.268Z,12.1
2022-11-04T07:05:37.044Z,12.1
2022-11-04T07:06:45.206Z,12.1
2022-11-04T07:07:49.000Z,12.2
2022-11-04T07:08:52.510Z,12.2
2022-11-04T07:09:54.978Z,12.2
2022-11-04T07:10:58.374Z,12.2
2022-11-04T07:12:01.483Z,12.2
2022-11-04T07:13:05.270Z,12.2
2022-11-04T07:14:07.877Z,12.2
2022-11-04T07:15:11.034Z,12.2
2022-11-04T07:16:13.884Z,12.2
2022-11-04T07:17:16.172Z,12.2
2022-11-04T07:18:19.831Z,12.2
2022-11-04T07:19:22.357Z,12.2
2022-11-04T07:20:26.005Z,12.2
2022-11-04T07:21:29.737Z,12.2
2022-11-04T07:22:33.442Z,12.2
2022-11-04T07:23:35.883Z,12.2
2022-11-04T07:24:39.358Z,12.2
2022-11-04T07:25:42.996Z,12.2
2022-11-04T07:26:46.481Z,12.2
2022-11-04T07:27:49.746Z,12.2
2022-11-04T07:28:52.921Z,12.2
2022-11-04T07:29:56.093Z,12.2
2022-11-04T07:30:59.190Z,12.2
2022-11-04T07:32:03.215Z,12.2
2022-11-04T07:33:06.662Z,12.2
2022-11-04T07:34:10.060Z,12.2
2022-11-04T07:35:13.237Z,12.3
2022-11-04T07:36:16.117Z,12.3
2022-11-04T07:37:18.936Z,12.3
2022-11-04T07:38:22.367Z,12.3
2022-11-04T07:39:25.225Z,12.3
2022-11-04T07:40:28.211Z,12.3
2022-11-04T07:41:31.381Z,12.3
2022-11-04T07:42:34.498Z,12.3
2022-11-04T07:43:38.244Z,12.3
2022-11-04T07:44:41.707Z,12.3
2022-11-04T07:45:45.124Z,12.4
2022-11-04T07:46:48.567Z,12.4
2022-11-04T07:47:51.399Z,12.4
2022-11-04T07:48:54.181Z,12.4
2022-11-04T07:49:57.865Z,12.4
2022-11-04T07:51:01.538Z,12.4
2022-11-04T07:52:04.531Z,12.5
2022-11-04T07:53:08.467Z,12.5
2022-11-04T07:54:12.961Z,12.5
2022-11-04T07:55:15.496Z,12.5
2022-11-04T07:56:17.933Z,12.5
2022-11-04T07:57:21.386Z,12.5
2022-11-04T07:58:24.209Z,12.5
2022-11-04T07:59:27.029Z,12.5
2022-11-04T08:00:30.715Z,12.5
2022-11-04T08:01:34.411Z,12.5
2022-11-04T08:02:38.439Z,12.6
2022-11-04T08:03:41.455Z,12.6
2022-11-04T08:04:44.545Z,12.6
2022-11-04T08:05:48.040Z,12.6
2022-11-04T08:06:51.499Z,12.6
2022-11-04T08:07:54.937Z,12.6
2022-11-04T08:08:58.235Z,12.6
2022-11-04T08:10:02.305Z,12.6
2022-11-04T08:11:05.740Z,12.6
2022-11-04T08:12:08.485Z,12.7
2022-11-04T08:13:12.651Z,12.7
2022-11-04T08:14:15.555Z,12.7
2022-11-04T08:15:18.129Z,12.7
2022-11-04T08:16:21.649Z,12.7
2022-11-04T08:17:25.389Z,12.7
2022-11-04T08:18:29.139Z,12.7
2022-11-04T08:19:32.591Z,12.7
2022-11-04T08:20:35.898Z,12.7
2022-11-04T08:21:39.445Z,12.7
2022-11-04T08:22:43.089Z,12.8
2022-11-04T08:23:46.472Z,12.7
2022-11-04T08:24:49.814Z,12.8
2022-11-04T08:25:52.887Z,12.8
2022-11-04T08:26:55.932Z,12.8
2022-11-04T08:28:02.127Z,12.8
2022-11-04T08:29:05.241Z,12.8
2022-11-04T08:30:08.342Z,12.8
2022-11-04T08:31:11.435Z,12.9
2022-11-04T08:32:14.788Z,12.8
2022-11-04T08:33:17.463Z,12.9
2022-11-04T08:34:20.249Z,12.9
2022-11-04T08:35:23.045Z,12.9
2022-11-04T08:36:26.482Z,12.9
2022-11-04T08:37:30.268Z,12.9
2022-11-04T08:38:33.722Z,12.9
2022-11-04T08:39:36.588Z,12.9
2022-11-04T08:40:39.017Z,12.9
2022-11-04T08:41:42.368Z,12.9
2022-11-04T08:42:45.371Z,13
2022-11-04T08:43:48.375Z,13
2022-11-04T08:44:51.202Z,13
2022-11-04T08:45:54.663Z,13
2022-11-04T08:46:57.537Z,13
2022-11-04T08:48:06.290Z,13
2022-11-04T08:49:21.463Z,13
2022-11-04T08:50:25.277Z,13
2022-11-04T08:51:28.190Z,13
2022-11-04T08:52:30.716Z,13
2022-11-04T08:53:34.242Z,13
2022-11-04T08:54:38.019Z,13
2022-11-04T08:55:41.466Z,13
2022-11-04T08:56:44.971Z,13
2022-11-04T08:57:48.700Z,13.1
2022-11-04T08:58:52.049Z,13.1
2022-11-04T08:59:55.790Z,13.1
2022-11-04T09:00:58.860Z,13.1
2022-11-04T09:02:01.715Z,13.1
2022-11-04T09:03:05.311Z,13.1
2022-11-04T09:04:08.448Z,13.1
2022-11-04T09:05:11.652Z,13.1
2022-11-04T09:06:15.278Z,13.1
2022-11-04T09:07:18.532Z,13.1
2022-11-04T09:08:21.953Z,13.1
2022-11-04T09:09:25.657Z,13.2
2022-11-04T09:10:28.277Z,13.2
2022-11-04T09:11:30.593Z,13.2
2022-11-04T09:12:33.120Z,13.2
2022-11-04T09:13:40.774Z,13.2
2022-11-04T09:14:43.877Z,13.3
2022-11-04T09:15:46.725Z,13.2
2022-11-04T09:16:50.276Z,13.3
2022-11-04T09:17:53.841Z,13.3
2022-11-04T09:18:57.360Z,13.3
2022-11-04T09:19:59.862Z,13.3
2022-11-04T09:21:03.215Z,13.3
2022-11-04T09:22:05.921Z,13.4
2022-11-04T09:23:09.311Z,13.4
2022-11-04T09:24:14.266Z,13.4
2022-11-04T09:25:18.036Z,13.4
2022-11-04T09:26:20.938Z,13.4
2022-11-04T09:27:23.095Z,13.4
2022-11-04T09:28:27.105Z,13.4
2022-11-04T09:29:30.337Z,13.4
2022-11-04T09:30:33.723Z,13.4
2022-11-04T09:31:37.342Z,13.4
2022-11-04T09:32:41.300Z,13.5
2022-11-04T09:33:44.576Z,13.5
2022-11-04T09:34:48.329Z,13.5
2022-11-04T09:35:51.770Z,13.5
2022-11-04T09:36:54.781Z,13.5
2022-11-04T09:37:57.519Z,13.5
2022-11-04T09:39:00.679Z,13.5
2022-11-04T09:40:04.145Z,13.5
2022-11-04T09:41:08.395Z,13.5
2022-11-04T09:42:11.513Z,13.6
2022-11-04T09:43:14.676Z,13.6
2022-11-04T09:44:17.865Z,13.7
2022-11-04T09:45:24.202Z,13.7
2022-11-04T09:46:26.656Z,13.8
2022-11-04T09:47:29.842Z,13.8
2022-11-04T09:48:32.981Z,13.9
2022-11-04T09:49:36.539Z,13.9
2022-11-04T09:50:39.860Z,14
2022-11-04T09:51:58.687Z,14
2022-11-04T09:53:01.962Z,14
2022-11-04T09:54:04.685Z,14.1
2022-11-04T09:55:08.142Z,14.1
2022-11-04T09:56:12.158Z,14.1
2022-11-04T09:57:15.033Z,14.1
2022-11-04T09:58:18.763Z,14.1
2022-11-04T09:59:21.351Z,14.2
2022-11-04T10:00:24.072Z,14.2
2022-11-04T10:01:28.406Z,14.2
2022-11-04T10:02:33.041Z,14.2
2022-11-04T10:03:37.248Z,14.2
2022-11-04T10:04:40.759Z,14.2
2022-11-04T10:05:44.400Z,14.2
2022-11-04T10:06:47.380Z,14.2
2022-11-04T10:07:50.543Z,14.2
2022-11-04T10:08:53.620Z,14.2
2022-11-04T10:09:57.064Z,14.1
2022-11-04T10:10:59.712Z,14.1
2022-11-04T10:12:04.026Z,14.1
2022-11-04T10:13:08.146Z,14.1
2022-11-04T10:14:12.898Z,14.1
2022-11-04T10:15:15.904Z,14.1
2022-11-04T10:16:19.146Z,14.1
2022-11-04T10:17:22.135Z,14.1
2022-11-04T10:18:25.818Z,14.1
2022-11-04T10:19:29.388Z,14.1
2022-11-04T10:20:33.247Z,14.1
2022-11-04T10:21:37.124Z,14.1
2022-11-04T10:22:40.198Z,14.1
2022-11-04T10:23:43.373Z,14.1
2022-11-04T10:24:46.080Z,14.1
2022-11-04T10:25:49.423Z,14
2022-11-04T10:27:01.446Z,14.1
2022-11-04T10:28:04.475Z,14
2022-11-04T10:29:07.850Z,14
2022-11-04T10:30:10.965Z,14
2022-11-04T10:31:13.128Z,14
2022-11-04T10:32:23.241Z,14
2022-11-04T10:33:26.061Z,14
2022-11-04T10:34:29.472Z,14
2022-11-04T10:35:33.356Z,14
2022-11-04T10:36:35.910Z,14
2022-11-04T10:37:39.082Z,14
2022-11-04T10:38:42.053Z,14
2022-11-04T10:39:45.506Z,14.1
2022-11-04T10:40:48.783Z,14.1
2022-11-04T10:41:51.953Z,14.1
2022-11-04T10:42:54.937Z,14.1
2022-11-04T10:43:58.192Z,14.1
2022-11-04T10:45:01.595Z,14.1
2022-11-04T10:46:04.330Z,14.1
2022-11-04T10:47:06.859Z,14.1
2022-11-04T10:48:09.658Z,14.1
2022-11-04T10:49:12.947Z,14.1
2022-11-04T10:50:31.917Z,14.1
2022-11-04T10:51:36.097Z,14.1
2022-11-04T10:52:39.263Z,14.1
2022-11-04T10:53:42.034Z,14.1
2022-11-04T10:54:44.902Z,14.1
2022-11-04T10:55:48.347Z,14.1
2022-11-04T10:56:52.078Z,14.1
2022-11-04T10:57:55.879Z,14.1
2022-11-04T10:58:59.266Z,14.1
2022-11-04T11:00:02.427Z,14.1
2022-11-04T11:01:06.747Z,14.1
2022-11-04T11:02:18.566Z,14.1
2022-11-04T11:03:22.123Z,14
2022-11-04T11:04:24.952Z,14
2022-11-04T11:05:28.651Z,14
2022-11-04T11:06:31.794Z,14
2022-11-04T11:07:35.582Z,13.9
2022-11-04T11:08:38.142Z,13.9
2022-11-04T11:09:41.247Z,13.9
2022-11-04T11:10:44.634Z,13.9
2022-11-04T11:11:47.781Z,13.9
2022-11-04T11:12:52.945Z,13.9
2022-11-04T11:13:56.322Z,13.9
2022-11-04T11:15:00.400Z,13.9
2022-11-04T11:16:03.917Z,13.9
2022-11-04T11:17:06.716Z,13.9
2022-11-04T11:18:09.704Z,14
2022-11-04T11:19:12.537Z,14
2022-11-04T11:20:15.683Z,14
2022-11-04T11:21:18.609Z,14.1
2022-11-04T11:22:21.121Z,14.1
2022-11-04T11:23:23.911Z,14.1
2022-11-04T11:24:26.721Z,14.1
2022-11-04T11:25:29.985Z,14.1
2022-11-04T11:26:32.723Z,14.2
2022-11-04T11:27:36.166Z,14.2
2022-11-04T11:28:39.251Z,14.2
2022-11-04T11:29:42.331Z,14.2
2022-11-04T11:30:45.122Z,14.3
2022-11-04T11:31:49.199Z,14.3
2022-11-04T11:32:51.996Z,14.3
2022-11-04T11:33:55.422Z,14.4
2022-11-04T11:34:57.679Z,14.4
2022-11-04T11:36:00.366Z,14.4
2022-11-04T11:37:03.401Z,14.4
2022-11-04T11:38:06.199Z,14.4
2022-11-04T11:39:09.555Z,14.5
2022-11-04T11:40:12.284Z,14.5
2022-11-04T11:41:30.666Z,14.5
2022-11-04T11:42:33.505Z,14.5
2022-11-04T11:43:36.333Z,14.5
2022-11-04T11:44:39.740Z,14.5
2022-11-04T11:45:42.801Z,14.5
2022-11-04T11:46:45.698Z,14.6
2022-11-04T11:47:48.536Z,14.5
2022-11-04T11:48:51.337Z,14.6
2022-11-04T11:49:54.778Z,14.6
2022-11-04T11:50:58.236Z,14.6
2022-11-04T11:52:00.970Z,14.6
2022-11-04T11:53:03.589Z,14.6
2022-11-04T11:54:06.415Z,14.6
2022-11-04T11:55:09.641Z,14.6
2022-11-04T11:56:12.520Z,14.6
2022-11-04T11:57:25.821Z,14.6
2022-11-04T12:01:47.280Z,14.6
2022-11-04T12:02:51.472Z,14.6
2022-11-04T12:10:52.488Z,14.6
2022-11-04T12:11:56.088Z,14.6
2022-11-04T12:12:59.745Z,14.6
2022-11-04T12:14:02.457Z,14.6
2022-11-04T12:15:05.547Z,14.6
2022-11-04T12:16:08.055Z,14.6
2022-11-04T12:17:10.588Z,14.6
2022-11-04T12:18:14.108Z,14.6
2022-11-04T12:19:18.244Z,14.7
2022-11-04T12:20:21.676Z,14.6
2022-11-04T12:21:25.055Z,14.7
2022-11-04T12:22:28.126Z,14.7
2022-11-04T12:23:31.113Z,14.7
2022-11-04T12:24:34.825Z,14.7
2022-11-04T12:25:38.268Z,14.7
2022-11-04T12:26:41.368Z,14.7
2022-11-04T12:27:44.408Z,14.7
2022-11-04T12:28:47.626Z,14.7
2022-11-04T12:29:50.975Z,14.7
2022-11-04T12:30:54.347Z,14.8
2022-11-04T12:31:57.255Z,14.8
2022-11-04T12:33:00.420Z,14.8
2022-11-04T12:34:04.148Z,14.8
2022-11-04T12:35:07.870Z,14.8
2022-11-04T12:36:11.295Z,14.9
2022-11-04T12:37:14.799Z,14.9
2022-11-04T12:38:17.950Z,14.9
2022-11-04T12:39:21.198Z,14.9
2022-11-04T12:40:24.302Z,14.9
2022-11-04T12:42:21.831Z,14.9
2022-11-04T12:43:35.724Z,14.9
2022-11-04T12:44:39.379Z,14.9
2022-11-04T12:45:42.902Z,14.9
2022-11-04T12:46:45.359Z,14.9
2022-11-04T12:47:48.432Z,14.9
2022-11-04T12:49:06.993Z,14.9
2022-11-04T12:50:10.992Z,14.9
2022-11-04T12:51:14.097Z,14.9
2022-11-04T12:52:17.908Z,14.9
2022-11-04T12:53:21.251Z,14.9
2022-11-04T12:54:24.250Z,14.9
2022-11-04T12:55:27.976Z,15
2022-11-04T12:56:31.085Z,15
2022-11-04T12:57:34.167Z,14.9
2022-11-04T12:58:37.323Z,14.9
2022-11-04T12:59:40.262Z,14.9
2022-11-04T13:00:44.293Z,14.9
2022-11-04T13:01:48.141Z,14.9
2022-11-04T13:02:52.066Z,14.9
2022-11-04T13:03:55.213Z,14.9
2022-11-04T13:04:58.382Z,14.9
2022-11-04T13:06:01.975Z,14.9
2022-11-04T13:07:05.114Z,14.9
2022-11-04T13:08:14.801Z,14.9
2022-11-04T13:09:18.223Z,14.9
2022-11-04T13:10:21.590Z,14.8
2022-11-04T13:11:24.699Z,14.9
2022-11-04T13:12:28.124Z,14.8
2022-11-04T13:13:31.495Z,14.8
2022-11-04T13:14:34.644Z,14.8
2022-11-04T13:15:37.888Z,14.8
2022-11-04T13:16:41.977Z,14.8
2022-11-04T13:17:45.784Z,14.8
2022-11-04T13:18:49.058Z,14.8
2022-11-04T13:19:52.146Z,14.8
2022-11-04T13:21:03.481Z,14.8
2022-11-04T13:22:06.608Z,14.8
2022-11-04T13:23:11.137Z,14.8
2022-11-04T13:24:15.277Z,14.8
2022-11-04T13:25:18.718Z,14.8
2022-11-04T13:26:21.996Z,14.8
2022-11-04T13:27:25.187Z,14.8
2022-11-04T13:28:28.714Z,14.8
2022-11-04T13:29:31.519Z,14.8
2022-11-04T13:30:34.968Z,14.8
2022-11-04T13:31:38.172Z,14.8
2022-11-04T13:32:41.855Z,14.8
2022-11-04T13:33:44.370Z,14.8
2022-11-04T13:34:47.160Z,14.7
2022-11-04T13:35:50.306Z,14.7
2022-11-04T13:36:53.756Z,14.7
2022-11-04T13:37:57.186Z,14.7
2022-11-04T13:39:00.279Z,14.7
2022-11-04T13:40:02.997Z,14.7
2022-11-04T13:41:20.317Z,14.7
2022-11-04T13:42:24.486Z,14.7
2022-11-04T13:43:28.111Z,14.6
2022-11-04T13:44:30.675Z,14.6
2022-11-04T13:45:34.345Z,14.6
2022-11-04T13:46:38.837Z,14.6
2022-11-04T13:47:42.317Z,14.6
2022-11-04T13:48:45.864Z,14.6
2022-11-04T13:49:48.952Z,14.6
2022-11-04T13:50:51.472Z,14.6
2022-11-04T13:51:54.283Z,14.6
2022-11-04T13:52:57.639Z,14.7
2022-11-04T13:54:01.091Z,14.7
2022-11-04T13:55:04.560Z,14.7
2022-11-04T13:56:35.464Z,14.7
2022-11-04T13:57:38.414Z,14.7
2022-11-04T13:58:47.701Z,14.7
2022-11-04T13:59:51.295Z,14.6
2022-11-04T14:00:54.761Z,14.7
2022-11-04T14:01:58.137Z,14.7
2022-11-04T14:03:02.372Z,14.7
2022-11-04T14:04:06.781Z,14.7
2022-11-04T14:05:09.655Z,14.7
2022-11-04T14:06:12.812Z,14.7
2022-11-04T14:07:15.123Z,14.7
2022-11-04T14:08:18.127Z,14.7
2022-11-04T14:09:21.430Z,14.6
2022-11-04T14:10:24.785Z,14.6
2022-11-04T14:11:27.573Z,14.6
2022-11-04T14:12:30.743Z,14.6
2022-11-04T14:13:33.532Z,14.6
2022-11-04T14:14:36.323Z,14.7
2022-11-04T14:15:39.748Z,14.6
2022-11-04T14:16:43.766Z,14.6
2022-11-04T14:17:47.024Z,14.6
2022-11-04T14:18:50.510Z,14.6
2022-11-04T14:19:53.971Z,14.6
2022-11-04T14:20:56.495Z,14.7
2022-11-04T14:22:00.546Z,14.6
2022-11-04T14:23:03.922Z,14.6
2022-11-04T14:24:06.695Z,14.6